Weather History for KSGT - November, 2012

Change the Weather History Date:

Wednesday, November 7, 2012

  Actual Average Record
Temperature  
Mean Temperature 52 °F -  
Max Temperature 62 °F 61 °F 84 °F (2005)
Min Temperature 41 °F 45 °F 33 °F (2007)
Degree Days  
Heating Degree Days 14    
Growing Degree Days 2 (Base 50)    
Moisture  
Dew Point 36 °F    
Average Humidity 60    
Maximum Humidity 81    
Minimum Humidity 32    
Precipitation  
Precipitation 0.00 in - - ()
Sea Level Pressure  
Sea Level Pressure 30.11 in    
Wind  
Wind Speed 10 mph (NNW)    
Max Wind Speed 20 mph    
Max Gust Speed 25 mph    
Visibility 10 miles    
Events      
Averages and records for this station are not official NWS values.
T = Trace of Precipitation, MM = Missing Value Source: NWS Daily Summary

Daily Weather History Graph

Daily Weather History Graph

Search for Another Location

Airport or City:

Trip Planner

Search our weather history database for the weather conditions in past years. The results will help you decide how hot, cold, wet, or windy it might be!

Date:

Astronomy

Nov. 07, 2012 Rise Set
Actual Time 6:32 AM CST 5:06 PM CST
Civil Twilight 6:06 AM CST 5:33 PM CST
Nautical Twilight 5:36 AM CST 6:03 PM CST
Astronomical Twilight 5:06 AM CST 6:32 PM CST
Moon No Moon Rise 1:00 PM CST (11/7)
Length of Visible Light 11h 26m
Length of Day
10h 34m
Last Quarter, 43% of the Moon is Illuminated
Nov 7
Last Quarter
Nov 13
New
Nov 20
First Quarter
Nov 28
Full
Dec 6
Last Quarter

Hourly Weather History & Observations

Time (CST) Temp. Windchill Dew Point Humidity Pressure Visibility Wind Dir Wind Speed Gust Speed Precip Events Conditions
12:55 AM 46.4 °F 41.9 °F 39.2 °F 76% 30.05 in 10.0 mi NW 9.2 mph - N/A   Clear
1:15 AM 46.4 °F 41.9 °F 39.2 °F 76% 30.05 in 10.0 mi NW 9.2 mph - N/A   Clear
1:35 AM 46.4 °F 41.9 °F 37.4 °F 71% 30.05 in 10.0 mi WNW 9.2 mph - N/A   Clear
1:56 AM 42.8 °F 38.0 °F 37.4 °F 81% 30.06 in 10.0 mi West 8.1 mph - N/A   Clear
2:15 AM 42.8 °F 38.0 °F 37.4 °F 81% 30.06 in 10.0 mi West 8.1 mph - N/A   Clear
2:55 AM 42.8 °F 38.0 °F 37.4 °F 81% 30.06 in 10.0 mi West 8.1 mph - N/A   Clear
3:15 AM 42.8 °F 37.5 °F 37.4 °F 81% 30.05 in 10.0 mi West 9.2 mph - N/A   Clear
3:35 AM 42.8 °F 38.0 °F 37.4 °F 81% 30.06 in 10.0 mi West 8.1 mph - N/A   Clear
3:55 AM 42.8 °F 38.0 °F 37.4 °F 81% 30.06 in 10.0 mi West 8.1 mph - N/A   Clear
4:35 AM 41.0 °F 35.8 °F 35.6 °F 81% 30.06 in 10.0 mi West 8.1 mph - N/A   Clear
4:55 AM 42.8 °F 37.5 °F 37.4 °F 81% 30.07 in 10.0 mi WNW 9.2 mph - N/A   Clear
5:15 AM 44.6 °F 39.2 °F 37.4 °F 76% 30.07 in 10.0 mi WNW 10.4 mph - N/A   Clear
5:35 AM 44.6 °F 39.7 °F 37.4 °F 76% 30.07 in 10.0 mi WNW 9.2 mph - N/A   Clear
6:15 AM 42.8 °F 37.0 °F 37.4 °F 81% 30.08 in 10.0 mi WNW 10.4 mph - N/A   Clear
6:35 AM 44.6 °F 39.2 °F 37.4 °F 76% 30.08 in 10.0 mi WNW 10.4 mph - N/A   Clear
6:55 AM 44.6 °F 39.7 °F 37.4 °F 76% 30.09 in 10.0 mi WNW 9.2 mph - N/A   Clear
7:15 AM 44.6 °F 39.2 °F 37.4 °F 76% 30.10 in 10.0 mi WNW 10.4 mph - N/A   Clear
7:35 AM 46.4 °F 41.9 °F 39.2 °F 76% 30.10 in 10.0 mi WNW 9.2 mph - N/A   Clear
7:55 AM 48.2 °F - 39.2 °F 71% 30.11 in 10.0 mi NW 8.1 mph - N/A   Clear
8:15 AM 50.0 °F - 39.2 °F 66% 30.11 in 10.0 mi NW 11.5 mph - N/A   Clear
8:35 AM 51.8 °F - 39.2 °F 62% 30.11 in 10.0 mi NW 13.8 mph - N/A   Clear
8:55 AM 53.6 °F - 39.2 °F 58% 30.11 in 10.0 mi NW 12.7 mph - N/A   Clear
9:16 AM 55.4 °F - 39.2 °F 54% 30.12 in 10.0 mi WNW 12.7 mph - N/A   Clear
9:35 AM 55.4 °F - 37.4 °F 51% 30.12 in 10.0 mi NW 15.0 mph - N/A   Clear
9:55 AM 57.2 °F - 37.4 °F 48% 30.12 in 10.0 mi NW 15.0 mph - N/A   Clear
10:16 AM 57.2 °F - 37.4 °F 48% 30.11 in 10.0 mi NW 17.3 mph 20.7 mph N/A   Clear
10:35 AM 57.2 °F - 35.6 °F 44% 30.11 in 10.0 mi NW 17.3 mph 23.0 mph N/A   Clear
10:55 AM 59.0 °F - 35.6 °F 42% 30.10 in 10.0 mi NW 19.6 mph 25.3 mph N/A   Clear
11:35 AM 59.0 °F - 35.6 °F 42% 30.10 in 10.0 mi NNW 15.0 mph - N/A   Clear
12:15 PM 60.8 °F - 33.8 °F 36% 30.08 in 10.0 mi North 17.3 mph 24.2 mph N/A   Clear
12:35 PM 60.8 °F - 33.8 °F 36% 30.09 in 10.0 mi North 16.1 mph 20.7 mph N/A   Clear
12:55 PM 60.8 °F - 33.8 °F 36% 30.08 in 10.0 mi North 15.0 mph 20.7 mph N/A   Clear
1:15 PM 60.8 °F - 33.8 °F 36% 30.08 in 10.0 mi NNW 15.0 mph - N/A   Clear
1:36 PM 60.8 °F - 33.8 °F 36% 30.08 in 10.0 mi NNW 10.4 mph 21.9 mph N/A   Clear
1:55 PM 60.8 °F - 33.8 °F 36% 30.08 in 10.0 mi North 13.8 mph 20.7 mph N/A   Clear
2:15 PM 60.8 °F - 33.8 °F 36% 30.07 in 10.0 mi NNW 17.3 mph 23.0 mph N/A   Clear
2:36 PM 62.6 °F - 32.0 °F 32% 30.08 in 10.0 mi North 18.4 mph - N/A   Clear
2:55 PM 60.8 °F - 33.8 °F 36% 30.09 in 10.0 mi North 16.1 mph 21.9 mph N/A   Clear
3:15 PM 60.8 °F - 33.8 °F 36% 30.09 in 10.0 mi North 13.8 mph - N/A   Clear
3:35 PM 60.8 °F - 33.8 °F 36% 30.10 in 10.0 mi NNE 13.8 mph 17.3 mph N/A   Clear
3:55 PM 59.0 °F - 35.6 °F 42% 30.10 in 10.0 mi NE 10.4 mph - N/A   Clear
4:15 PM 57.2 °F - 33.8 °F 41% 30.11 in 10.0 mi NNE 12.7 mph - N/A   Clear
5:15 PM 53.6 °F - 35.6 °F 51% 30.12 in 10.0 mi ENE 9.2 mph - N/A   Clear
5:35 PM 53.6 °F - 35.6 °F 51% 30.13 in 10.0 mi ENE 8.1 mph - N/A   Clear
5:56 PM 51.8 °F - 35.6 °F 54% 30.14 in 10.0 mi ENE 6.9 mph - N/A   Clear
6:15 PM 51.8 °F - 35.6 °F 54% 30.14 in 10.0 mi ENE 8.1 mph - N/A   Clear
6:35 PM 51.8 °F - 35.6 °F 54% 30.15 in 10.0 mi ENE 6.9 mph - N/A   Clear
6:55 PM 48.2 °F - 35.6 °F 62% 30.15 in 10.0 mi ENE 5.8 mph - N/A   Clear
7:16 PM 48.2 °F - 35.6 °F 62% 30.15 in 10.0 mi ENE 5.8 mph - N/A   Clear
7:35 PM 48.2 °F - 35.6 °F 62% 30.16 in 10.0 mi ENE 5.8 mph - N/A   Clear
7:55 PM 48.2 °F - 33.8 °F 58% 30.16 in 10.0 mi East 4.6 mph - N/A   Clear
8:16 PM 48.2 °F - 35.6 °F 62% 30.17 in 10.0 mi East 4.6 mph - N/A   Clear
8:35 PM 44.6 °F - 33.8 °F 66% 30.18 in 10.0 mi Calm Calm - N/A   Clear
8:55 PM 44.6 °F - 35.6 °F 71% 30.18 in 10.0 mi Calm Calm - N/A   Clear
9:35 PM 42.8 °F - 33.8 °F 70% 30.18 in 10.0 mi Calm Calm - N/A   Clear
9:55 PM 44.6 °F 43.1 °F 35.6 °F 71% 30.19 in 10.0 mi East 3.5 mph - N/A   Clear
10:35 PM 42.8 °F 41.1 °F 33.8 °F 70% 30.19 in 10.0 mi East 3.5 mph - N/A   Clear
10:55 PM 46.4 °F 44.3 °F 33.8 °F 62% 30.20 in 10.0 mi East 4.6 mph - N/A   Clear
11:35 PM 44.6 °F 41.4 °F 33.8 °F 66% 30.20 in 10.0 mi East 5.8 mph - N/A   Clear
11:55 PM 44.6 °F 42.2 °F 33.8 °F 66% 30.20 in 10.0 mi East 4.6 mph - N/A   Clear